首页
METAR-TAF:

METAR-TAF

机场 :

金海国际机场

釜山廣域, 大韩民国

纬度: 35-11N, 经度: 128-56E, 海拔: 4米

当前天气观测

该预报发布于20分钟前的09:00 UTC
风速6节,风向南转南东
温度 11°C
湿度 47%
气压 1020 hPa
能見度: 8000

METAR: RKPK 040900Z 15006KT 8000 NSC 11/00 Q1020

时间: 18:20 (09:20 UTC)

预报

该预报发布于4小时和20分钟前的05:00 UTC
预报有效从04日的 06点(UTC)到 05日的 12点(UTC)
风速6节,风向
能見度: 9000
散云层高于3000英尺
多云层高于20000英尺
成为
从 04日的 09点(UTC)到 04日的 10点(UTC)
风速6节,风向南转南东
成为
从 04日的 15点(UTC)到 04日的 16点(UTC)
风速6节,风向
能見度: 4800
多云层高于2000英尺
阴天层高于3000英尺
小雨, 轻雾,

TAF: RKPK 040500Z 0406/0512 18006KT 9000 SCT030 BKN200 TX14/0406Z TN07/0421Z BECMG 0409/0410 15006KT NSW NSC BECMG 0415/0416 09006KT 4800 -RA BR BKN020 OVC030

超过4000个机场的气象观测和天气预报(METAR&TAF报告)。

可查询的气象台以黄色和红色小点在地图上表示。

将鼠标移到小点上方,可查看气象台名称。

然后点击查看天气观测和预报。

如需切换地图:点击带黑十字的绿色按钮放大地图;点击带横线的绿色按钮缩小地图;或者点击绿色箭头查看邻近地区的地图。


METAR-TAF: